Latest Coastal Weather Observations for Legendre Island

IDW60701

Issued at 7:43 am WST Monday 19 February 2018 (issued every 10 minutes, with the page automatically refreshed every 10 minutes)

About coastal observations | Map of coastal stations | Coastal observations for WA | Marine services | Other Formats
Station Details ID: 004095 Name: LEGENDRE ISLAND Lat: -20.36 Lon: 116.84 Height: 29.0 m
Data from the previous 72 hours. | See also: Recent months at Legendre Island
Date/Time
WST
Temp
°C
Wind Pressure Rain since
9am
mm
Weather Cloud Vis
km
Sea
Height
m
Swell
Dir  Spd
kts
Gust
kts
hPa Trend Height
m
Period
s
Dir
19/07:30am 25.6 SW 22 27 1003.2 - - - - - - - - -
19/07:00am 25.6 SW 23 29 1003.0 - - - - - - - - -
19/06:30am 25.4 SW 25 30 1002.6 - - - - - - - - -
19/06:00am 25.6 SW 25 30 1002.4 - - - - - - - - -
19/05:30am 26.0 SW 25 30 1002.2 - - - - - - - - -
19/05:00am 26.4 SW 24 29 1002.0 - - - - - - - - -
19/04:30am 26.6 SW 25 29 1001.9 - - - - - - - - -
19/04:00am 27.0 SW 24 29 1001.7 - - - - - - - - -
19/03:30am 27.2 WSW 24 29 1001.6 - - - - - - - - -
19/03:00am 27.6 WSW 26 31 1001.3 - - - - - - - - -
19/02:30am 28.0 SW 24 30 1001.5 - - - - - - - - -
19/02:00am 28.6 SW 27 31 1001.1 - - - - - - - - -
19/01:30am 28.9 SW 26 31 1001.1 - - - - - - - - -
19/01:00am 28.8 WSW 25 31 1001.4 - - - - - - - - -
19/12:30am 28.6 WSW 26 32 1001.7 - - - - - - - - -
19/12:00am 28.7 WSW 26 33 1001.8 - - - - - - - - -
 
Date/Time
WST
Temp
°C
Wind Pressure Rain since
9am
mm
Weather Cloud Vis
km
Sea
Height
m
Swell
Dir  Spd
kts
Gust
kts
hPa Trend Height
m
Period
s
Dir
18/11:30pm 28.6 WSW 27 33 1002.1 - - - - - - - - -
18/11:00pm 28.8 WSW 28 33 1002.3 - - - - - - - - -
18/10:30pm 28.9 WSW 26 32 1002.2 - - - - - - - - -
18/10:00pm 28.9 WSW 25 32 1002.5 - - - - - - - - -
18/09:30pm 28.9 WSW 24 30 1002.1 - - - - - - - - -
18/09:00pm 28.9 WSW 27 31 1001.8 - - - - - - - - -
18/08:30pm 28.8 WSW 24 30 1001.6 - - - - - - - - -
18/08:00pm 28.9 WSW 26 31 1001.1 - - - - - - - - -
18/07:30pm 29.0 WSW 24 30 1000.8 - - - - - - - - -
18/07:00pm 29.0 WSW 24 29 1000.3 - - - - - - - - -
18/06:30pm 29.4 WSW 24 31 1000.0 - - - - - - - - -
18/06:00pm 30.2 W 25 31 999.7 - - - - - - - - -
18/05:30pm 31.2 WSW 23 28 999.9 - - - - - - - - -
18/05:00pm 31.2 W 23 27 999.7 - - - - - - - - -
18/04:30pm 31.3 W 21 26 999.2 - - - - - - - - -
18/04:00pm 31.4 W 19 24 999.4 - - - - - - - - -
18/03:30pm 31.2 W 17 21 999.6 - - - - - - - - -
18/03:00pm 31.6 W 17 21 999.9 - - - - - - - - -
18/02:30pm 31.3 W 18 21 1000.1 - - - - - - - - -
18/02:00pm 32.0 W 17 21 1000.4 - - - - - - - - -
18/01:30pm 32.3 W 17 21 1000.8 - - - - - - - - -
18/01:00pm 32.2 W 16 18 1001.3 - - - - - - - - -
18/12:30pm 32.4 W 14 16 1002.0 - - - - - - - - -
18/12:00pm 32.7 W 12 15 1002.1 - - - - - - - - -
18/11:30am 32.4 WSW 12 14 1002.2 - - - - - - - - -
18/11:00am 31.6 WSW 11 13 1002.5 - - - - - - - - -
18/10:30am 31.8 SW 9 12 1002.8 - - - - - - - - -
18/10:00am 31.8 SW 11 13 1002.9 - - - - - - - - -
18/09:30am 31.3 SW 10 13 1003.0 - - - - - - - - -
18/09:00am 31.2 SSW 11 13 1003.0 - - - - - - - - -
18/08:30am 30.7 SW 12 14 1002.7 - - - - - - - - -
18/08:00am 30.4 SSW 11 13 1002.4 - - - - - - - - -
18/07:30am 30.0 SSW 7 10 1002.3 - - - - - - - - -
18/07:00am 28.9 SSW 6 8 1002.0 - - - - - - - - -
18/06:30am 28.2 WSW 8 9 1001.8 - - - - - - - - -
18/06:00am 27.9 WSW 8 9 1001.7 - - - - - - - - -
18/05:30am 28.0 WSW 9 10 1001.5 - - - - - - - - -
18/05:00am 28.0 WSW 10 13 1001.3 - - - - - - - - -
18/04:30am 28.1 WSW 10 12 1001.1 - - - - - - - - -
18/04:00am 27.9 WSW 8 11 1001.2 - - - - - - - - -
18/03:30am 27.9 SW 7 8 1001.2 - - - - - - - - -
18/03:00am 27.8 WSW 9 10 1001.1 - - - - - - - - -
18/02:30am 27.9 WSW 10 12 1001.3 - - - - - - - - -
18/02:00am 27.9 WSW 8 9 1001.5 - - - - - - - - -
18/01:30am 27.8 WSW 7 8 1001.6 - - - - - - - - -
18/01:00am 28.2 WSW 8 10 1001.6 - - - - - - - - -
18/12:30am 28.3 SW 10 12 1002.1 - - - - - - - - -
18/12:00am 28.1 SW 13 16 1002.6 - - - - - - - - -
 
Date/Time
WST
Temp
°C
Wind Pressure Rain since
9am
mm
Weather Cloud Vis
km
Sea
Height
m
Swell
Dir  Spd
kts
Gust
kts
hPa Trend Height
m
Period
s
Dir
17/11:30pm 28.4 SW 15 21 1002.8 - - - - - - - - -
17/11:00pm 28.6 SW 15 19 1002.9 - - - - - - - - -
17/10:30pm 28.8 SW 14 17 1003.4 - - - - - - - - -
17/10:00pm 28.7 W 13 16 1003.0 - - - - - - - - -
17/09:30pm 28.3 W 11 13 1003.3 - - - - - - - - -
17/09:00pm 28.2 W 8 11 1003.2 - - - - - - - - -
17/08:30pm 28.1 WSW 11 14 1003.0 - - - - - - - - -
17/08:00pm 27.9 WSW 15 18 1002.8 - - - - - - - - -
17/07:30pm 28.1 WSW 19 24 1002.5 - - - - - - - - -
17/07:00pm 29.1 WSW 20 26 1002.1 - - - - - - - - -
17/06:30pm 29.1 W 17 23 1002.0 - - - - - - - - -
17/06:00pm 29.4 W 19 23 1001.4 - - - - - - - - -
17/05:30pm 30.2 W 19 22 1001.1 - - - - - - - - -
17/05:00pm 30.9 W 17 21 1000.8 - - - - - - - - -
17/04:30pm 31.3 W 16 21 1000.7 - - - - - - - - -
17/04:00pm 30.9 WNW 14 16 1001.3 - - - - - - - - -
17/03:30pm 30.2 W 12 15 1001.3 - - - - - - - - -
17/03:00pm 32.6 WNW 11 15 1001.4 - - - - - - - - -
17/02:30pm 32.4 NNW 7 11 1001.7 - - - - - - - - -
17/02:00pm 32.0 NNE 6 7 1002.0 - - - - - - - - -
17/01:30pm 32.6 NE 5 6 1002.2 - - - - - - - - -
17/01:00pm 32.5 NE 6 7 1002.6 - - - - - - - - -
17/12:30pm 32.3 E 7 8 1002.9 - - - - - - - - -
17/12:00pm 32.3 E 9 10 1003.2 - - - - - - - - -
17/11:30am 32.4 E 9 10 1003.5 - - - - - - - - -
17/11:00am 31.9 E 9 11 1003.7 - - - - - - - - -
17/10:30am 31.8 E 8 10 1004.0 - - - - - - - - -
17/10:00am 31.7 E 10 11 1004.4 - - - - - - - - -
17/09:30am 31.1 E 8 10 1004.5 - - - - - - - - -
17/09:00am 30.6 ESE 9 11 1004.5 - - - - - - - - -
17/08:30am 29.9 ESE 9 10 1004.6 - - - - - - - - -
17/08:00am 28.9 SE 8 9 1004.3 - - - - - - - - -
17/07:30am 28.8 SE 8 10 1004.2 - - - - - - - - -
17/07:00am 28.4 SE 8 9 1004.2 - - - - - - - - -
17/06:30am 27.5 ESE 8 9 1004.3 - - - - - - - - -
17/06:00am 27.2 ESE 8 9 1004.0 - - - - - - - - -
17/05:30am 26.9 SE 8 10 1003.7 - - - - - - - - -
17/05:00am 26.8 SE 9 11 1003.3 - - - - - - - - -
17/04:30am 26.4 SE 9 11 1003.0 - - - - - - - - -
17/04:00am 26.7 SE 9 11 1003.4 - - - - - - - - -
17/03:30am 26.3 SSE 7 9 1003.5 - - - - - - - - -
17/03:00am 26.3 SSE 9 11 1003.3 - - - - - - - - -
17/02:30am 26.3 S 10 13 1003.9 - - - - - - - - -
17/02:00am 26.3 SSE 10 12 1004.7 - - - - - - - - -
17/01:30am 26.2 SE 10 14 1005.1 - - - - - - - - -
17/01:00am 26.6 SE 11 14 1005.4 - - - - - - - - -
17/12:30am 25.9 SSE 11 15 1005.1 - - - - - - - - -
17/12:00am 25.7 W 4 5 1004.7 - - - - - - - - -
 
Date/Time
WST
Temp
°C
Wind Pressure Rain since
9am
mm
Weather Cloud Vis
km
Sea
Height
m
Swell
Dir  Spd
kts
Gust
kts
hPa Trend Height
m
Period
s
Dir
16/11:30pm 25.4 SSW 6 8 1005.0 - - - - - - - - -
16/11:00pm 25.6 SSE 16 20 1006.2 - - - - - - - - -
16/10:48pm 25.6 SSE 15 18 1006.3 - - - - - - - - -
16/10:30pm 25.7 WSW 7 9 1006.0 - - - - - - - - -
16/10:00pm 24.7 W 11 17 1005.4 - - - - - - - - -
16/09:30pm 24.2 WSW 15 21 1006.2 - - - - - - - - -
16/09:11pm 24.1 SW 18 23 1006.2 - - - - - - - - -
16/09:00pm 24.2 SSW 24 35 1006.8 - - - - - - - - -
16/08:38pm 24.4 S 28 39 1006.0 - - - - - - - - -
16/08:30pm 24.7 SSW 21 35 1006.3 - - - - - - - - -
16/08:25pm 26.3 SW 12 34 1006.2 - - - - - - - - -
16/08:00pm 29.8 W 13 16 1005.0 - - - - - - - - -
16/07:30pm 29.8 WNW 10 12 1004.7 - - - - - - - - -
16/07:00pm 30.1 NW 10 12 1004.4 - - - - - - - - -
16/06:30pm 30.3 NNW 11 13 1003.7 - - - - - - - - -
16/06:00pm 30.6 NNW 11 13 1003.4 - - - - - - - - -
16/05:30pm 31.1 NNW 10 12 1003.1 - - - - - - - - -
16/05:00pm 31.7 NNW 11 13 1002.4 - - - - - - - - -
16/04:30pm 31.7 N 10 11 1002.5 - - - - - - - - -
16/04:00pm 32.1 N 10 12 1003.1 - - - - - - - - -
16/03:30pm 32.0 N 10 12 1003.4 - - - - - - - - -
16/03:00pm 32.5 N 10 11 1004.2 - - - - - - - - -
16/02:30pm 32.2 N 9 10 1004.8 - - - - - - - - -
16/02:00pm 33.5 NNE 9 10 1005.2 - - - - - - - - -
16/01:30pm 33.7 N 7 9 1005.3 - - - - - - - - -
16/01:00pm 33.5 NNE 6 8 1005.7 - - - - - - - - -
16/12:30pm 33.6 NE 7 9 1006.0 - - - - - - - - -
16/12:00pm 33.0 NNE 5 6 1006.3 - - - - - - - - -
16/11:30am 31.9 NNE 4 5 1006.7 - - - - - - - - -
16/11:00am 32.1 NE 2 4 1007.1 - - - - - - - - -
16/10:30am 32.2 NE 2 4 1007.3 - - - - - - - - -
16/10:00am 31.6 ENE 3 4 1007.3 - - - - - - - - -
16/09:30am 31.6 E 4 5 1007.2 - - - - - - - - -
16/09:00am 32.3 SSE 5 6 1007.3 - - - - - - - - -
16/08:30am 31.1 SSE 6 8 1007.2 - - - - - - - - -
16/08:00am 31.0 SE 6 9 1007.3 - - - - - - - - -

Other Formats:

Comma delimited format used in spreadsheet applications
http://www.bom.gov.au/fwo/IDW60701/IDW60701.94307.axf

JavaScript Object Notation format (JSON) in row-major order
http://www.bom.gov.au/fwo/IDW60701/IDW60701.94307.json